Time;durP1;ratioP1;P1;durP2;ratioP2;P2;SDS_P1;SDS_P2;PMS_P1;PMS_P2;Temp;Humidity;BMP_temperature;BMP_pressure;BME280_temperature;BME280_humidity;BME280_pressure;Samples;Min_cycle;Max_cycle;Signal;HPM_P1;HPM_P2
2022/07/08 00:00:17;;;;;;;6.97;1.58;;;15.60;99.90;;;;;;5090079;27;37938;-58
2022/07/08 00:02:47;;;;;;;7.05;1.08;;;15.60;99.90;;;;;;5090110;27;38291;-58
2022/07/08 00:05:14;;;;;;;8.27;1.65;;;15.50;99.90;;;;;;5089716;27;35223;-59
2022/07/08 00:07:41;;;;;;;7.88;1.33;;;15.50;99.90;;;;;;5090354;27;38799;-58
2022/07/08 00:10:09;;;;;;;12.95;1.55;;;15.50;99.90;;;;;;5090571;27;38583;-59
2022/07/08 00:12:37;;;;;;;11.15;1.80;;;15.50;99.90;;;;;;5089178;27;37315;-58
2022/07/08 00:15:05;;;;;;;11.45;3.03;;;15.50;99.90;;;;;;5089828;27;36668;-58
2022/07/08 00:17:32;;;;;;;6.55;1.63;;;15.50;99.90;;;;;;5089870;27;38211;-59
2022/07/08 00:20:01;;;;;;;8.88;2.20;;;15.50;99.90;;;;;;5091449;27;40508;-58
2022/07/08 00:22:28;;;;;;;8.65;1.48;;;15.50;99.90;;;;;;5089886;27;38383;-58
2022/07/08 00:24:56;;;;;;;7.32;1.90;;;15.50;99.90;;;;;;5089603;27;35335;-58
2022/07/08 00:27:23;;;;;;;8.15;1.63;;;15.50;99.90;;;;;;5089817;27;38232;-58
2022/07/08 00:29:50;;;;;;;10.70;1.45;;;15.50;99.90;;;;;;5089890;27;36436;-58
2022/07/08 00:32:18;;;;;;;7.82;1.55;;;15.50;99.90;;;;;;5089178;27;38078;-58
2022/07/08 00:34:45;;;;;;;11.93;1.90;;;15.50;99.90;;;;;;5089704;27;36433;-58
2022/07/08 00:37:14;;;;;;;10.98;1.83;;;15.40;99.90;;;;;;5090247;27;36518;-58
2022/07/08 00:39:41;;;;;;;7.53;1.63;;;15.50;99.90;;;;;;5089902;27;39151;-58
2022/07/08 00:42:09;;;;;;;7.20;1.45;;;15.40;99.90;;;;;;5089945;27;38997;-58
2022/07/08 00:44:36;;;;;;;6.30;1.17;;;15.30;99.90;;;;;;5089542;27;37090;-59
2022/07/08 00:47:04;;;;;;;10.63;1.58;;;15.30;99.90;;;;;;5089543;27;36406;-58
2022/07/08 00:49:35;;;;;;;10.45;1.65;;;15.20;99.90;;;;;;5090957;27;36569;-58
2022/07/08 00:52:02;;;;;;;11.10;1.40;;;15.20;99.90;;;;;;5090532;27;37176;-58
2022/07/08 00:54:32;;;;;;;9.63;1.83;;;15.20;99.90;;;;;;5087997;27;36612;-58
2022/07/08 00:57:00;;;;;;;12.25;1.35;;;15.10;99.90;;;;;;5088332;27;38152;-58
2022/07/08 00:59:28;;;;;;;10.07;1.65;;;15.10;99.90;;;;;;5088034;27;37508;-58
2022/07/08 01:01:56;;;;;;;8.18;2.00;;;15.10;99.90;;;;;;5089708;27;37847;-58
2022/07/08 01:04:23;;;;;;;7.75;1.75;;;15.10;99.90;;;;;;5089417;27;36469;-59
2022/07/08 01:06:51;;;;;;;5.82;1.40;;;15.10;99.90;;;;;;5089341;27;39468;-58
2022/07/08 01:09:18;;;;;;;9.05;1.77;;;15.10;99.90;;;;;;5089463;27;37902;-58
2022/07/08 01:11:47;;;;;;;5.25;1.25;;;15.10;99.90;;;;;;5089309;27;37823;-58
2022/07/08 01:14:16;;;;;;;8.00;1.52;;;15.10;99.90;;;;;;5088328;27;37518;-58
2022/07/08 01:16:43;;;;;;;5.45;1.15;;;15.00;99.90;;;;;;5089139;27;37837;-59
2022/07/08 01:19:11;;;;;;;10.30;1.80;;;14.90;99.90;;;;;;5090836;27;38621;-58
2022/07/08 01:21:39;;;;;;;7.75;1.30;;;14.90;99.90;;;;;;5089889;27;37392;-58
2022/07/08 01:24:07;;;;;;;11.93;1.67;;;14.90;99.90;;;;;;5089539;27;36774;-59
2022/07/08 01:26:35;;;;;;;6.32;1.10;;;14.80;99.90;;;;;;5088984;27;37856;-58
2022/07/08 01:29:02;;;;;;;12.85;2.30;;;14.80;99.90;;;;;;5090403;27;36648;-58
2022/07/08 01:31:30;;;;;;;11.35;1.60;;;14.80;99.90;;;;;;5089768;27;38116;-58
2022/07/08 01:33:57;;;;;;;7.85;1.50;;;14.70;99.90;;;;;;5087169;27;36678;-58
2022/07/08 01:36:24;;;;;;;8.85;1.63;;;14.60;99.90;;;;;;5088510;27;36120;-58
2022/07/08 01:38:53;;;;;;;11.60;1.95;;;14.60;99.90;;;;;;5086172;27;37421;-58
2022/07/08 01:41:20;;;;;;;5.65;1.13;;;14.60;99.90;;;;;;5088358;27;38302;-58
2022/07/08 01:43:47;;;;;;;8.68;1.38;;;14.60;99.90;;;;;;5089582;27;36373;-58
2022/07/08 01:46:15;;;;;;;10.07;2.15;;;14.60;99.90;;;;;;5087105;27;37954;-58
2022/07/08 01:48:42;;;;;;;6.97;1.33;;;14.60;99.90;;;;;;5089427;27;38411;-58
2022/07/08 01:51:09;;;;;;;13.82;1.88;;;14.60;99.90;;;;;;5089096;27;37201;-58
2022/07/08 01:53:37;;;;;;;12.32;1.83;;;14.60;99.90;;;;;;5088421;27;38551;-58
2022/07/08 01:56:06;;;;;;;12.60;2.40;;;14.60;99.90;;;;;;5088115;27;37962;-58
2022/07/08 01:58:33;;;;;;;8.18;1.45;;;14.60;99.90;;;;;;5088815;27;38125;-58
2022/07/08 02:01:01;;;;;;;20.20;2.00;;;14.60;99.90;;;;;;5086318;27;37352;-58
2022/07/08 02:03:28;;;;;;;8.23;2.00;;;14.50;99.90;;;;;;5087917;27;37307;-59
2022/07/08 02:05:55;;;;;;;14.55;2.45;;;14.50;99.90;;;;;;5087706;27;39239;-58
2022/07/08 02:08:23;;;;;;;6.38;1.30;;;14.50;99.90;;;;;;5087672;27;38345;-58
2022/07/08 02:13:37;;;;;;;10.13;2.28;;;14.40;99.90;;;;;;5087881;27;37732;-58
2022/07/08 02:16:07;;;;;;;8.82;1.52;;;14.40;99.90;;;;;;5087068;27;37419;-58
2022/07/08 02:18:35;;;;;;;10.85;1.77;;;14.40;99.90;;;;;;5086639;27;36798;-58
2022/07/08 02:21:03;;;;;;;7.55;1.73;;;14.40;99.90;;;;;;5089457;27;36223;-59
2022/07/08 02:23:30;;;;;;;6.85;1.35;;;14.40;99.90;;;;;;5087841;27;36399;-59
2022/07/08 02:25:57;;;;;;;8.98;1.80;;;14.30;99.90;;;;;;5088669;27;36157;-59
2022/07/08 02:28:25;;;;;;;15.57;1.90;;;14.40;99.90;;;;;;5088115;27;38528;-58
2022/07/08 02:30:53;;;;;;;8.68;1.42;;;14.40;99.90;;;;;;5087391;27;37465;-59
2022/07/08 02:33:21;;;;;;;13.45;2.15;;;14.40;99.90;;;;;;5085620;27;38512;-60
2022/07/08 02:35:48;;;;;;;9.13;1.83;;;14.40;99.90;;;;;;5087139;27;38855;-59
2022/07/08 02:38:15;;;;;;;6.28;2.65;;;14.40;99.90;;;;;;5087269;27;38497;-59
2022/07/08 02:40:42;;;;;;;10.90;1.52;;;14.40;99.90;;;;;;5088633;27;38255;-59
2022/07/08 02:43:10;;;;;;;8.15;1.50;;;14.40;99.90;;;;;;5088425;27;35985;-58
2022/07/08 02:45:38;;;;;;;7.72;1.75;;;14.30;99.90;;;;;;5088837;27;37317;-59
2022/07/08 02:48:07;;;;;;;9.20;2.15;;;14.30;99.90;;;;;;5087640;27;37662;-59
2022/07/08 02:50:35;;;;;;;8.77;1.67;;;14.30;99.90;;;;;;5087022;27;37127;-59
2022/07/08 02:53:02;;;;;;;7.65;1.60;;;14.20;99.90;;;;;;5085983;27;36533;-58
2022/07/08 02:55:29;;;;;;;13.05;2.30;;;14.20;99.90;;;;;;5088055;27;38044;-58
2022/07/08 02:57:57;;;;;;;10.82;1.63;;;14.20;99.90;;;;;;5087273;27;36714;-59
2022/07/08 03:00:24;;;;;;;6.38;1.30;;;14.10;99.90;;;;;;5085837;27;36439;-59
2022/07/08 03:02:51;;;;;;;9.27;1.75;;;14.10;99.90;;;;;;5088360;27;38714;-58
2022/07/08 03:05:20;;;;;;;10.77;1.88;;;14.10;99.90;;;;;;5087146;27;38037;-58
2022/07/08 03:07:47;;;;;;;16.52;1.60;;;14.00;99.90;;;;;;5085907;27;39100;-58
2022/07/08 03:10:15;;;;;;;6.72;1.60;;;14.00;99.90;;;;;;5088798;27;36318;-58
2022/07/08 03:12:42;;;;;;;11.77;1.60;;;14.00;99.90;;;;;;5086306;27;37858;-59
2022/07/08 03:15:10;;;;;;;10.80;1.70;;;14.00;99.90;;;;;;5088506;27;39127;-59
2022/07/08 03:17:37;;;;;;;6.55;1.83;;;14.00;99.90;;;;;;5089556;27;36387;-59
2022/07/08 03:20:06;;;;;;;7.18;1.50;;;13.90;99.90;;;;;;5089966;27;37868;-59
2022/07/08 03:22:35;;;;;;;9.93;1.85;;;13.90;99.90;;;;;;5090693;27;36618;-59
2022/07/08 03:25:03;;;;;;;10.70;1.73;;;13.90;99.90;;;;;;5091095;27;38391;-59
2022/07/08 03:27:31;;;;;;;13.52;2.00;;;13.90;99.90;;;;;;5090667;27;38103;-59
2022/07/08 03:29:58;;;;;;;11.75;1.77;;;13.90;99.90;;;;;;5089743;27;38075;-59
2022/07/08 03:32:26;;;;;;;8.23;1.40;;;13.80;99.90;;;;;;5088300;27;35323;-58
2022/07/08 03:34:54;;;;;;;5.50;1.40;;;13.80;99.90;;;;;;5089538;27;37230;-58
2022/07/08 03:37:21;;;;;;;7.53;1.25;;;13.80;99.90;;;;;;5088573;27;38130;-58
2022/07/08 03:39:51;;;;;;;9.60;1.40;;;13.80;99.90;;;;;;5090284;27;38322;-59
2022/07/08 03:42:17;;;;;;;8.50;2.08;;;13.90;99.90;;;;;;5090736;27;39998;-59
2022/07/08 03:44:44;;;;;;;11.35;2.10;;;13.90;99.90;;;;;;5090190;27;37460;-58
2022/07/08 03:47:12;;;;;;;10.80;1.85;;;13.90;99.90;;;;;;5088860;27;37969;-59
2022/07/08 03:49:40;;;;;;;6.88;1.73;;;13.90;99.90;;;;;;5089940;27;38629;-59
2022/07/08 03:52:07;;;;;;;7.38;1.70;;;13.90;99.90;;;;;;5090809;27;36250;-58
2022/07/08 03:54:35;;;;;;;13.40;2.15;;;13.90;99.90;;;;;;5088492;27;39195;-58
2022/07/08 03:57:04;;;;;;;9.88;1.92;;;13.90;99.90;;;;;;5086100;27;37509;-59
2022/07/08 03:59:32;;;;;;;8.68;2.05;;;13.90;99.90;;;;;;5089625;27;38550;-59
2022/07/08 04:01:59;;;;;;;7.70;2.08;;;14.00;99.90;;;;;;5088178;27;37412;-59
2022/07/08 04:04:26;;;;;;;8.20;2.50;;;14.00;99.90;;;;;;5089572;27;37336;-58
2022/07/08 04:06:53;;;;;;;8.70;1.83;;;14.10;99.90;;;;;;5089669;27;39062;-59
2022/07/08 04:09:21;;;;;;;10.80;2.05;;;14.20;99.90;;;;;;5088859;27;37763;-60
2022/07/08 04:11:48;;;;;;;8.65;1.60;;;14.20;99.90;;;;;;5089969;27;37570;-59
2022/07/08 04:14:17;;;;;;;9.75;1.90;;;14.30;99.90;;;;;;5087037;27;38470;-58
2022/07/08 04:16:44;;;;;;;7.68;1.45;;;14.40;99.90;;;;;;5089809;27;37955;-59
2022/07/08 04:19:11;;;;;;;8.77;1.90;;;14.50;99.90;;;;;;5089241;27;36422;-58
2022/07/08 04:21:40;;;;;;;7.32;1.35;;;14.60;99.90;;;;;;5088146;27;38200;-58
2022/07/08 04:24:08;;;;;;;7.60;1.55;;;14.70;99.90;;;;;;5088228;27;38269;-59
2022/07/08 04:26:35;;;;;;;11.57;2.22;;;14.80;99.90;;;;;;5087989;27;37742;-59
2022/07/08 04:29:03;;;;;;;8.90;1.63;;;15.00;99.90;;;;;;5088596;27;37550;-58
2022/07/08 04:31:31;;;;;;;8.48;1.80;;;15.00;99.90;;;;;;5089315;27;36092;-59
2022/07/08 04:33:58;;;;;;;8.90;1.33;;;15.10;99.90;;;;;;5088539;27;38557;-58
2022/07/08 04:36:26;;;;;;;9.95;1.48;;;15.10;99.90;;;;;;5089937;27;37758;-58
2022/07/08 04:38:54;;;;;;;9.27;2.03;;;14.90;99.90;;;;;;5087462;27;38194;-58
2022/07/08 04:41:21;;;;;;;10.00;1.88;;;15.00;99.90;;;;;;5088646;27;36167;-59
2022/07/08 04:43:48;;;;;;;8.95;1.67;;;15.10;99.90;;;;;;5088645;27;37344;-59
2022/07/08 04:46:16;;;;;;;6.95;1.60;;;15.00;99.90;;;;;;5089491;27;37536;-59
2022/07/08 04:48:44;;;;;;;10.30;1.58;;;15.10;99.90;;;;;;5090274;27;36746;-59
2022/07/08 04:51:12;;;;;;;8.32;1.77;;;15.10;99.90;;;;;;5088828;27;36069;-59
2022/07/08 04:53:39;;;;;;;12.52;2.22;;;15.10;99.90;;;;;;5087493;27;39542;-58
2022/07/08 04:56:07;;;;;;;9.32;2.22;;;15.10;99.90;;;;;;5089344;27;37561;-59
2022/07/08 04:58:34;;;;;;;10.00;1.98;;;15.00;99.90;;;;;;5088867;27;38821;-59
2022/07/08 05:01:02;;;;;;;10.07;1.98;;;15.10;99.90;;;;;;5085989;27;37320;-58
2022/07/08 05:03:29;;;;;;;8.57;1.70;;;15.10;99.90;;;;;;5086568;27;36215;-58
2022/07/08 05:05:58;;;;;;;12.95;2.47;;;15.10;99.90;;;;;;5087880;27;37016;-59
2022/07/08 05:08:25;;;;;;;11.93;2.40;;;15.10;99.90;;;;;;5087305;27;36871;-58
2022/07/08 05:10:53;;;;;;;9.27;1.75;;;15.20;99.90;;;;;;5088327;27;36778;-59
2022/07/08 05:13:20;;;;;;;11.73;1.70;;;15.30;99.90;;;;;;5085853;27;38292;-59
2022/07/08 05:15:47;;;;;;;8.18;1.88;;;15.50;99.90;;;;;;5086723;27;37498;-58
2022/07/08 05:18:15;;;;;;;8.57;2.20;;;15.70;99.90;;;;;;5087648;27;38705;-59
2022/07/08 05:20:42;;;;;;;12.60;2.20;;;15.80;99.90;;;;;;5087758;27;35248;-59
2022/07/08 05:23:10;;;;;;;8.77;2.45;;;16.00;99.90;;;;;;5088125;27;38325;-58
2022/07/08 05:25:41;;;;;;;6.47;1.40;;;16.20;99.90;;;;;;5087569;27;37771;-59
2022/07/08 05:28:08;;;;;;;10.85;2.20;;;16.30;99.90;;;;;;5088186;27;37220;-59
2022/07/08 05:30:35;;;;;;;13.63;1.85;;;16.40;99.90;;;;;;5087601;27;36540;-57
2022/07/08 05:33:02;;;;;;;13.95;2.78;;;16.50;99.90;;;;;;5087111;27;38555;-59
2022/07/08 05:35:30;;;;;;;8.82;2.30;;;16.60;99.90;;;;;;5086959;27;38038;-59
2022/07/08 05:37:57;;;;;;;12.23;2.17;;;16.60;99.90;;;;;;5086042;27;37578;-59
2022/07/08 05:40:26;;;;;;;11.63;1.83;;;16.60;99.90;;;;;;5088004;27;34952;-59
2022/07/08 05:42:53;;;;;;;10.27;2.03;;;16.60;99.90;;;;;;5086903;27;37164;-58
2022/07/08 05:45:21;;;;;;;10.55;2.35;;;16.60;99.90;;;;;;5086802;27;37268;-59
2022/07/08 05:47:48;;;;;;;12.98;1.80;;;16.50;99.90;;;;;;5086927;27;37231;-59
2022/07/08 05:50:16;;;;;;;15.18;2.53;;;16.50;99.90;;;;;;5087135;27;36732;-59
2022/07/08 05:52:43;;;;;;;6.85;1.70;;;16.50;99.90;;;;;;5086558;27;38596;-59
2022/07/08 05:55:10;;;;;;;11.05;1.98;;;16.40;99.90;;;;;;5087427;27;37595;-58
2022/07/08 05:57:39;;;;;;;12.77;2.42;;;16.40;99.90;;;;;;5087150;27;36230;-58
2022/07/08 06:00:08;;;;;;;11.07;1.90;;;16.50;99.90;;;;;;5086802;27;36460;-59
2022/07/08 06:02:37;;;;;;;8.93;2.13;;;16.50;99.90;;;;;;5087188;27;38513;-59
2022/07/08 06:05:04;;;;;;;13.15;2.03;;;16.50;99.90;;;;;;5089316;27;38516;-59
2022/07/08 06:07:32;;;;;;;10.57;2.13;;;16.50;99.90;;;;;;5087911;27;37266;-59
2022/07/08 06:10:00;;;;;;;13.75;2.30;;;16.60;99.90;;;;;;5087577;27;36323;-58
2022/07/08 06:12:28;;;;;;;7.75;1.75;;;16.60;99.90;;;;;;5086435;27;37604;-59
2022/07/08 06:14:57;;;;;;;11.38;2.15;;;16.60;99.90;;;;;;5088033;27;38397;-58
2022/07/08 06:17:24;;;;;;;13.05;2.45;;;16.60;99.90;;;;;;5086584;27;39245;-59
2022/07/08 06:19:51;;;;;;;8.63;1.85;;;16.60;99.90;;;;;;5086632;27;36640;-59
2022/07/08 06:22:19;;;;;;;11.30;2.05;;;16.60;99.90;;;;;;5086227;27;36373;-59
2022/07/08 06:24:46;;;;;;;7.75;1.65;;;16.60;99.90;;;;;;5078668;27;37670;-58
2022/07/08 06:27:13;;;;;;;13.07;2.95;;;16.60;99.90;;;;;;5085060;27;37282;-59
2022/07/08 06:29:41;;;;;;;15.35;2.22;;;16.60;99.90;;;;;;5085269;27;36042;-59
2022/07/08 06:32:09;;;;;;;14.23;2.58;;;16.60;99.90;;;;;;5084531;27;38621;-59
2022/07/08 06:34:37;;;;;;;9.55;2.00;;;16.60;99.90;;;;;;5086354;27;37847;-59
2022/07/08 06:37:04;;;;;;;9.15;3.72;;;16.60;99.90;;;;;;5085493;27;39145;-58
2022/07/08 06:39:32;;;;;;;15.52;3.45;;;16.60;99.90;;;;;;5085000;27;38059;-59
2022/07/08 06:41:59;;;;;;;10.48;3.75;;;16.70;99.90;;;;;;5087700;27;37654;-59
2022/07/08 06:44:26;;;;;;;18.88;5.40;;;16.80;99.90;;;;;;5084842;27;36278;-59
2022/07/08 06:46:54;;;;;;;17.50;5.78;;;16.80;99.90;;;;;;5085177;27;38896;-59
2022/07/08 06:49:23;;;;;;;17.33;5.18;;;16.90;99.90;;;;;;5086883;27;36822;-59
2022/07/08 06:51:50;;;;;;;14.18;4.43;;;17.00;99.90;;;;;;5090906;27;38341;-59
2022/07/08 06:54:36;;;;;;;13.65;3.90;;;17.00;99.90;;;;;;5090587;27;37734;-59
2022/07/08 06:57:04;;;;;;;13.30;3.75;;;17.20;99.90;;;;;;5090386;27;37748;-59
2022/07/08 06:59:31;;;;;;;11.38;2.95;;;17.40;99.90;;;;;;5090008;27;38296;-59
2022/07/08 07:01:59;;;;;;;8.32;2.10;;;17.50;99.90;;;;;;5087859;27;37738;-59
2022/07/08 07:04:28;;;;;;;11.27;2.00;;;17.70;99.90;;;;;;5089594;27;37152;-59
2022/07/08 07:06:56;;;;;;;8.02;2.08;;;17.90;99.90;;;;;;5086554;27;38030;-59
2022/07/08 07:09:23;;;;;;;10.07;1.98;;;18.00;99.90;;;;;;5089164;27;36674;-59
2022/07/08 07:11:51;;;;;;;11.05;2.22;;;18.00;99.90;;;;;;5090072;27;38155;-59
2022/07/08 07:14:18;;;;;;;11.02;2.42;;;18.00;99.90;;;;;;5089220;27;37820;-58
2022/07/08 07:16:45;;;;;;;8.88;1.92;;;18.00;99.90;;;;;;5090194;27;37255;-56
2022/07/08 07:19:12;;;;;;;13.20;2.42;;;18.20;99.90;;;;;;5090684;27;37236;-58
2022/07/08 07:21:41;;;;;;;10.88;2.00;;;18.30;99.90;;;;;;5080176;27;37577;-58
2022/07/08 07:24:09;;;;;;;7.70;1.88;;;18.40;99.90;;;;;;5085431;27;35861;-59
2022/07/08 07:26:36;;;;;;;10.02;2.38;;;18.40;99.90;;;;;;5088409;27;37776;-59
2022/07/08 07:29:04;;;;;;;9.13;2.00;;;18.30;99.90;;;;;;5089247;27;36472;-59
2022/07/08 07:31:31;;;;;;;7.30;1.88;;;18.30;99.90;;;;;;5086904;27;37480;-59
2022/07/08 07:33:59;;;;;;;8.75;2.35;;;18.20;99.90;;;;;;5087764;27;37242;-58
2022/07/08 07:36:26;;;;;;;8.50;2.35;;;18.20;99.90;;;;;;5090148;27;39097;-59
2022/07/08 07:38:55;;;;;;;8.30;2.28;;;18.30;99.90;;;;;;5088051;27;36211;-58
2022/07/08 07:41:22;;;;;;;7.70;2.10;;;18.30;99.90;;;;;;5089510;27;39067;-59
2022/07/08 07:43:50;;;;;;;9.13;2.17;;;18.30;99.90;;;;;;5090556;27;37576;-59
2022/07/08 07:46:17;;;;;;;8.48;2.00;;;18.30;99.90;;;;;;5090654;27;38313;-59
2022/07/08 07:48:45;;;;;;;6.78;1.95;;;18.30;99.90;;;;;;5089703;27;36678;-59
2022/07/08 07:51:12;;;;;;;6.28;1.58;;;18.40;99.90;;;;;;5091275;27;36302;-59
2022/07/08 07:53:40;;;;;;;8.32;2.22;;;18.30;99.90;;;;;;5089552;27;37763;-58
2022/07/08 07:56:09;;;;;;;6.43;1.60;;;18.30;99.90;;;;;;5091430;27;37416;-59
2022/07/08 07:58:39;;;;;;;5.57;1.90;;;18.30;99.90;;;;;;5089986;27;36597;-59
2022/07/08 08:01:07;;;;;;;7.85;1.77;;;18.20;99.90;;;;;;5090322;27;38259;-58
2022/07/08 08:03:34;;;;;;;10.32;2.42;;;18.20;99.90;;;;;;5091066;27;37970;-59
2022/07/08 08:06:02;;;;;;;16.58;3.10;;;18.20;99.90;;;;;;5091090;27;37829;-59
2022/07/08 08:08:31;;;;;;;8.90;2.47;;;18.20;99.90;;;;;;5091216;27;36108;-59
2022/07/08 08:10:59;;;;;;;15.23;2.72;;;18.20;99.90;;;;;;5090270;27;39267;-58
2022/07/08 08:13:28;;;;;;;10.60;2.40;;;18.20;99.90;;;;;;5090469;27;36549;-59
2022/07/08 08:15:56;;;;;;;11.50;3.35;;;18.20;99.90;;;;;;5090354;27;38639;-59
2022/07/08 08:18:23;;;;;;;11.77;2.30;;;18.20;99.90;;;;;;5090214;27;35216;-59
2022/07/08 08:20:51;;;;;;;7.30;2.03;;;18.20;99.90;;;;;;5089693;27;38527;-58
2022/07/08 08:23:18;;;;;;;8.95;2.00;;;18.20;99.90;;;;;;5091351;27;38369;-59
2022/07/08 08:25:46;;;;;;;8.77;2.35;;;18.20;99.90;;;;;;5090698;27;37079;-59
2022/07/08 08:28:13;;;;;;;7.53;1.90;;;18.10;99.90;;;;;;5087341;27;37550;-59
2022/07/08 08:30:42;;;;;;;9.43;2.25;;;18.10;99.90;;;;;;5090957;27;37441;-59
2022/07/08 08:33:09;;;;;;;10.27;1.65;;;18.10;99.90;;;;;;5088101;27;37568;-59
2022/07/08 08:35:37;;;;;;;8.80;2.17;;;18.10;99.90;;;;;;5083102;27;36116;-58
2022/07/08 08:38:04;;;;;;;7.18;2.15;;;18.10;99.90;;;;;;5086223;27;37579;-59
2022/07/08 08:40:32;;;;;;;9.00;2.13;;;18.10;99.90;;;;;;5088644;27;37762;-58
2022/07/08 08:42:59;;;;;;;7.20;1.70;;;18.00;99.90;;;;;;5088549;27;36396;-59
2022/07/08 08:45:27;;;;;;;11.77;2.35;;;18.10;99.90;;;;;;5089823;27;37277;-59
2022/07/08 08:48:03;;;;;;;9.73;2.20;;;18.10;99.90;;;;;;5090362;27;37031;-59
2022/07/08 08:53:18;;;;;;;9.70;2.47;;;18.20;99.90;;;;;;5088646;27;39608;-60
2022/07/08 08:55:48;;;;;;;6.78;1.50;;;18.20;99.90;;;;;;5088993;27;36637;-59
2022/07/08 08:58:17;;;;;;;10.13;2.30;;;18.20;99.90;;;;;;5087024;27;36540;-59
2022/07/08 09:00:44;;;;;;;9.63;1.83;;;18.20;99.90;;;;;;5086986;27;37484;-59
2022/07/08 09:03:13;;;;;;;8.40;1.80;;;18.30;99.90;;;;;;5087337;27;37641;-58
2022/07/08 09:05:40;;;;;;;7.57;2.15;;;18.40;99.90;;;;;;5088337;27;38173;-59
2022/07/08 09:08:08;;;;;;;8.65;2.08;;;18.40;99.90;;;;;;5087037;27;36533;-59
2022/07/08 09:10:36;;;;;;;7.05;2.10;;;18.40;99.90;;;;;;5087364;27;37513;-58
2022/07/08 09:13:06;;;;;;;9.88;2.45;;;18.50;99.90;;;;;;5087109;27;37387;-58
2022/07/08 09:15:35;;;;;;;7.97;2.13;;;18.60;99.90;;;;;;5090097;27;36056;-59
2022/07/08 09:18:04;;;;;;;8.27;2.17;;;18.60;99.90;;;;;;5088772;27;35117;-59
2022/07/08 09:20:44;;;;;;;7.47;2.25;;;18.60;99.90;;;;;;5087102;27;37740;-59
2022/07/08 09:23:16;;;;;;;8.98;2.85;;;18.60;99.90;;;;;;5087656;27;36444;-59
2022/07/08 09:25:45;;;;;;;5.68;1.73;;;18.60;99.90;;;;;;5085778;27;38235;-59
2022/07/08 09:28:13;;;;;;;6.25;2.15;;;18.70;99.90;;;;;;5088576;27;36330;-59
2022/07/08 09:30:41;;;;;;;8.15;2.00;;;18.80;99.90;;;;;;5089087;27;38863;-59
2022/07/08 09:33:10;;;;;;;8.00;2.10;;;18.80;99.90;;;;;;5087361;27;37708;-58
2022/07/08 09:35:42;;;;;;;9.68;2.38;;;18.90;99.90;;;;;;5087435;27;37608;-58
2022/07/08 09:38:11;;;;;;;8.20;2.17;;;18.90;99.90;;;;;;5089393;27;37320;-58
2022/07/08 09:40:38;;;;;;;5.78;1.90;;;19.00;99.90;;;;;;5087290;27;38553;-58
2022/07/08 09:43:13;;;;;;;7.85;2.33;;;19.00;99.90;;;;;;5088623;27;20082;-58
2022/07/08 09:45:41;;;;;;;8.70;2.00;;;19.00;99.90;;;;;;5088244;27;38851;-58
2022/07/08 09:48:10;;;;;;;9.73;2.30;;;19.00;99.90;;;;;;5087523;27;38420;-58
2022/07/08 09:50:41;;;;;;;10.05;2.22;;;19.00;99.90;;;;;;5089147;27;37590;-58
2022/07/08 09:53:22;;;;;;;7.47;1.75;;;19.00;99.90;;;;;;5087664;27;38516;-58
2022/07/08 09:55:51;;;;;;;7.68;1.63;;;19.10;99.90;;;;;;5088724;27;37438;-59
2022/07/08 09:58:20;;;;;;;7.47;1.70;;;19.10;99.90;;;;;;5088630;27;37685;-58
2022/07/08 10:00:50;;;;;;;6.80;1.67;;;19.10;99.90;;;;;;5088707;27;38851;-58
2022/07/08 10:03:18;;;;;;;7.43;2.10;;;19.10;99.90;;;;;;5087098;27;37699;-59
2022/07/08 10:05:47;;;;;;;6.55;1.85;;;19.20;99.90;;;;;;5088332;27;37924;-58
2022/07/08 10:08:16;;;;;;;5.93;1.30;;;19.20;99.90;;;;;;5087608;27;36957;-58
2022/07/08 10:10:48;;;;;;;6.80;1.85;;;19.30;99.90;;;;;;5087362;27;38653;-58
2022/07/08 10:13:16;;;;;;;6.00;2.05;;;19.30;99.90;;;;;;5087715;27;37907;-58
2022/07/08 10:15:44;;;;;;;11.10;1.98;;;19.40;99.90;;;;;;5088131;27;37369;-58
2022/07/08 10:18:18;;;;;;;7.85;1.77;;;19.40;99.90;;;;;;5088186;27;36321;-58
2022/07/08 10:20:50;;;;;;;7.97;2.05;;;19.40;99.90;;;;;;5088662;27;37338;-58
2022/07/08 10:23:23;;;;;;;9.45;1.90;;;19.30;99.90;;;;;;5088359;27;37490;-58
2022/07/08 10:25:52;;;;;;;10.18;2.47;;;19.40;99.90;;;;;;5092559;27;39357;-58
2022/07/08 10:28:19;;;;;;;7.18;2.20;;;19.40;99.90;;;;;;5092680;27;36732;-58
2022/07/08 10:30:50;;;;;;;9.48;2.22;;;19.40;99.90;;;;;;5092521;27;38568;-59
2022/07/08 10:33:19;;;;;;;10.85;2.00;;;19.50;99.90;;;;;;5090976;27;36451;-58
2022/07/08 10:36:06;;;;;;;7.80;1.92;;;19.50;99.90;;;;;;5092717;27;38470;-58
2022/07/08 10:38:41;;;;;;;5.57;1.70;;;19.50;99.90;;;;;;5093027;27;36944;-58
2022/07/08 10:41:09;;;;;;;7.25;1.88;;;19.50;99.90;;;;;;5092371;27;37725;-58
2022/07/08 10:43:37;;;;;;;6.70;1.92;;;19.60;99.90;;;;;;5091502;27;38690;-58
2022/07/08 10:46:11;;;;;;;8.73;2.13;;;19.70;99.90;;;;;;5091876;27;37246;-58
2022/07/08 10:48:49;;;;;;;8.40;2.05;;;19.80;99.90;;;;;;5091391;27;36423;-58
2022/07/08 10:51:46;;;;;;;5.95;1.73;;;19.90;99.90;;;;;;5089657;27;37472;-58
2022/07/08 10:54:32;;;;;;;9.93;1.80;;;19.90;99.90;;;;;;5091627;27;38527;-58
2022/07/08 10:57:01;;;;;;;7.82;2.05;;;20.00;99.90;;;;;;5093487;27;38000;-58
2022/07/08 10:59:30;;;;;;;7.82;2.08;;;20.10;99.90;;;;;;5092597;27;37599;-57
2022/07/08 11:02:01;;;;;;;6.43;1.70;;;20.20;99.90;;;;;;5093124;27;37597;-58
2022/07/08 11:04:45;;;;;;;7.63;2.08;;;20.40;99.90;;;;;;5092432;27;37881;-58
2022/07/08 11:07:30;;;;;;;10.98;2.10;;;20.50;99.90;;;;;;5089642;27;37230;-58
2022/07/08 11:10:01;;;;;;;8.20;2.20;;;20.70;99.90;;;;;;5091944;27;36277;-58
2022/07/08 11:12:39;;;;;;;5.55;1.67;;;20.80;99.90;;;;;;5090827;27;39655;-58
2022/07/08 11:15:20;;;;;;;6.50;2.10;;;20.90;99.90;;;;;;5090147;27;37676;-58
2022/07/08 11:17:51;;;;;;;11.02;1.73;;;20.90;99.90;;;;;;5091575;27;37082;-58
2022/07/08 11:20:19;;;;;;;10.00;2.35;;;21.00;99.90;;;;;;5091475;27;38098;-53
2022/07/08 11:22:48;;;;;;;8.52;2.55;;;21.00;99.90;;;;;;5089520;27;40343;-54
2022/07/08 11:25:17;;;;;;;5.15;1.65;;;21.00;99.90;;;;;;5089951;27;37404;-54
2022/07/08 11:27:44;;;;;;;7.40;1.75;;;21.10;99.90;;;;;;5089467;27;38264;-53
2022/07/08 11:30:14;;;;;;;7.50;1.90;;;21.10;99.90;;;;;;5089910;27;36126;-53
2022/07/08 11:32:42;;;;;;;9.02;1.98;;;21.20;99.90;;;;;;5087908;27;37430;-53
2022/07/08 11:35:10;;;;;;;8.40;1.90;;;21.30;99.90;;;;;;5089521;27;36497;-54
2022/07/08 11:37:40;;;;;;;7.88;2.22;;;21.30;99.90;;;;;;5089005;27;37780;-54
2022/07/08 11:40:10;;;;;;;9.48;2.35;;;21.30;99.70;;;;;;5089815;27;40149;-52
2022/07/08 11:42:38;;;;;;;3.97;1.40;;;21.40;99.90;;;;;;5089742;27;38617;-52
2022/07/08 11:45:10;;;;;;;7.55;1.83;;;21.40;99.90;;;;;;5089546;27;38241;-52
2022/07/08 11:47:38;;;;;;;9.30;2.53;;;21.60;99.90;;;;;;5089830;27;36897;-53
2022/07/08 11:50:08;;;;;;;8.68;2.10;;;21.70;99.90;;;;;;5089290;27;36765;-53
2022/07/08 11:52:38;;;;;;;9.55;2.15;;;21.70;99.90;;;;;;5087932;27;37737;-54
2022/07/08 11:55:09;;;;;;;7.40;2.25;;;21.60;99.90;;;;;;5089650;27;38108;-57
2022/07/08 11:57:42;;;;;;;9.35;2.60;;;21.60;99.90;;;;;;5092372;27;37807;-58
2022/07/08 12:00:10;;;;;;;8.67;2.60;;;21.50;99.90;;;;;;5092019;27;35436;-58
2022/07/08 12:02:38;;;;;;;8.73;2.72;;;21.50;99.90;;;;;;5091320;27;37099;-58
2022/07/08 12:05:09;;;;;;;9.85;2.42;;;21.40;99.90;;;;;;5089744;27;39480;-58
2022/07/08 12:07:38;;;;;;;7.05;2.40;;;21.40;99.90;;;;;;5091175;27;38632;-58
2022/07/08 12:10:06;;;;;;;8.07;2.85;;;21.40;99.90;;;;;;5091338;27;36769;-58
2022/07/08 12:12:35;;;;;;;8.60;2.83;;;21.40;99.90;;;;;;5090271;27;37384;-58
2022/07/08 12:15:11;;;;;;;9.15;2.40;;;21.30;99.90;;;;;;5091478;27;38344;-58
2022/07/08 12:17:39;;;;;;;10.43;2.60;;;21.30;99.90;;;;;;5088803;27;38386;-58
2022/07/08 12:20:07;;;;;;;11.50;3.03;;;21.30;99.90;;;;;;5090401;27;36750;-58
2022/07/08 12:22:48;;;;;;;8.40;3.03;;;21.40;99.90;;;;;;5089918;27;35929;-59
2022/07/08 12:25:17;;;;;;;7.82;2.30;;;21.30;99.90;;;;;;5090882;27;39169;-58
2022/07/08 12:27:59;;;;;;;10.23;2.50;;;21.20;99.90;;;;;;5091130;27;35422;-58
2022/07/08 12:30:27;;;;;;;13.65;3.53;;;21.20;99.90;;;;;;5091107;27;38068;-58
2022/07/08 12:33:00;;;;;;;7.53;2.67;;;21.10;99.90;;;;;;5089448;27;38075;-58
2022/07/08 12:35:30;;;;;;;15.05;3.28;;;21.10;99.90;;;;;;5087658;27;36660;-53
2022/07/08 12:38:05;;;;;;;10.85;2.92;;;21.10;99.90;;;;;;5087725;27;37566;-58
2022/07/08 12:40:38;;;;;;;10.40;2.72;;;21.10;99.90;;;;;;5088040;27;37308;-58
2022/07/08 12:43:08;;;;;;;9.55;2.50;;;21.00;99.90;;;;;;5089519;27;36304;-58
2022/07/08 12:45:35;;;;;;;9.70;2.35;;;21.10;99.90;;;;;;5089890;27;37912;-58
2022/07/08 12:48:03;;;;;;;9.57;2.88;;;21.20;99.90;;;;;;5089862;27;36146;-57
2022/07/08 12:50:34;;;;;;;10.32;2.20;;;21.20;99.90;;;;;;5090661;27;36974;-57
2022/07/08 12:53:03;;;;;;;12.07;2.45;;;21.20;99.90;;;;;;5088788;27;36890;-57
2022/07/08 12:55:30;;;;;;;11.23;2.55;;;21.10;99.90;;;;;;5090110;27;37215;-58